Time;durP1;ratioP1;P1;durP2;ratioP2;P2;SDS_P1;SDS_P2;PMS_P1;PMS_P2;Temp;Humidity;BMP_temperature;BMP_pressure;BME280_temperature;BME280_humidity;BME280_pressure;Samples;Min_cycle;Max_cycle;Signal;HPM_P1;HPM_P2
2023/06/20 00:01:00;;;;;;;5.18;4.68;;;21.40;55.40;;;;;;5039483;28;20209;-80
2023/06/20 00:03:25;;;;;;;5.10;4.70;;;21.30;99.90;;;;;;5057296;28;20196;-80
2023/06/20 00:05:51;;;;;;;4.63;4.22;;;21.30;99.90;;;;;;5057269;28;20200;-80
2023/06/20 00:08:17;;;;;;;5.15;4.40;;;21.30;99.90;;;;;;5042268;28;20200;-80
2023/06/20 00:10:42;;;;;;;5.00;4.50;;;21.40;99.90;;;;;;5043649;28;20197;-80
2023/06/20 00:13:08;;;;;;;6.00;4.60;;;21.30;1.00;;;;;;5044166;28;20180;-80
2023/06/20 00:15:33;;;;;;;5.10;4.70;;;21.20;1.00;;;;;;5062099;28;20180;-80
2023/06/20 00:18:00;;;;;;;4.90;4.50;;;21.20;1.00;;;;;;5061819;28;20208;-79
2023/06/20 00:20:30;;;;;;;4.90;4.50;;;21.10;1.00;;;;;;5043125;28;20193;-80
2023/06/20 00:22:56;;;;;;;5.18;4.78;;;21.10;99.90;;;;;;5043631;28;20264;-80
2023/06/20 00:25:22;;;;;;;5.10;4.70;;;21.00;99.90;;;;;;5061493;28;20201;-81
2023/06/20 00:27:47;;;;;;;4.97;4.57;;;21.00;1.00;;;;;;5043954;28;20220;-80
2023/06/20 00:30:13;;;;;;;4.95;4.53;;;21.00;99.90;;;;;;5043921;28;20559;-79
2023/06/20 00:32:39;;;;;;;5.30;4.80;;;21.00;99.90;;;;;;5061415;28;20270;-80
2023/06/20 00:35:05;;;;;;;5.85;4.65;;;20.90;99.90;;;;;;5043993;28;20196;-80
2023/06/20 00:37:30;;;;;;;5.10;4.60;;;20.90;1.00;;;;;;5043436;28;20198;-79
2023/06/20 00:39:56;;;;;;;5.13;4.63;;;20.80;1.00;;;;;;5043775;28;20197;-80
2023/06/20 00:42:23;;;;;;;5.65;4.60;;;20.70;99.90;;;;;;5061080;28;20161;-80
2023/06/20 00:44:50;;;;;;;5.18;4.78;;;20.70;99.90;;;;;;5061197;28;20173;-80
2023/06/20 00:47:17;;;;;;;5.05;4.57;;;20.80;30.40;;;;;;5043241;28;20182;-80
2023/06/20 00:49:48;;;;;;;5.55;5.05;;;20.80;1.00;;;;;;5043188;28;20177;-80
2023/06/20 00:52:24;;;;;;;5.38;4.35;;;20.90;99.90;;;;;;5061146;28;20170;-80
2023/06/20 00:54:50;;;;;;;5.35;4.70;;;20.90;1.00;;;;;;5060607;28;20169;-80
2023/06/20 00:57:19;;;;;;;5.18;4.70;;;20.90;1.00;;;;;;5043293;28;20209;-80
2023/06/20 00:59:49;;;;;;;4.80;4.30;;;20.90;24.80;;;;;;5060286;28;20168;-80
2023/06/20 01:02:16;;;;;;;5.60;4.50;;;20.80;99.90;;;;;;5061196;28;20187;-80
2023/06/20 01:04:43;;;;;;;4.50;4.10;;;20.80;99.90;;;;;;5060479;28;20174;-80
2023/06/20 01:07:39;;;;;;;4.75;4.35;;;20.70;1.00;;;;;;5042872;28;20227;-80
2023/06/20 01:10:22;;;;;;;5.38;4.88;;;20.80;99.90;;;;;;5028999;28;20202;-80
2023/06/20 01:13:08;;;;;;;5.10;4.60;;;20.70;92.10;;;;;;5042861;28;20182;-80
2023/06/20 01:16:18;;;;;;;5.18;4.68;;;20.70;99.90;;;;;;5060891;28;20184;-80
2023/06/20 01:18:53;;;;;;;4.78;4.28;;;20.60;1.00;;;;;;5004735;28;20189;-80
2023/06/20 01:21:25;;;;;;;5.35;4.90;;;20.50;1.00;;;;;;5043108;28;20581;-80
2023/06/20 01:24:05;;;;;;;7.35;5.00;;;20.60;32.70;;;;;;5042707;28;20251;-80
2023/06/20 01:26:34;;;;;;;4.80;4.40;;;20.60;1.00;;;;;;5042273;28;20161;-80
2023/06/20 01:29:13;;;;;;;5.05;4.65;;;20.60;1.00;;;;;;5059686;28;20174;-79
2023/06/20 01:31:44;;;;;;;5.20;4.80;;;20.50;1.00;;;;;;5040106;28;20194;-80
2023/06/20 01:34:15;;;;;;;5.70;5.20;;;20.50;37.80;;;;;;5041316;28;20170;-80
2023/06/20 01:36:46;;;;;;;5.35;4.88;;;20.50;99.90;;;;;;5060186;28;20209;-80
2023/06/20 01:39:22;;;;;;;5.25;4.75;;;20.50;99.90;;;;;;5041612;28;20197;-78
2023/06/20 01:41:49;;;;;;;5.28;4.78;;;20.50;99.90;;;;;;5060026;28;20194;-80
2023/06/20 01:44:16;;;;;;;5.25;4.75;;;20.40;99.90;;;;;;5060149;28;20174;-80
2023/06/20 01:46:45;;;;;;;5.20;4.80;;;20.40;1.00;;;;;;5042068;28;20178;-80
2023/06/20 01:49:12;;;;;;;5.03;4.50;;;20.30;98.00;;;;;;5042555;28;20196;-80
2023/06/20 01:51:39;;;;;;;4.85;4.45;;;20.30;99.90;;;;;;5059669;28;20197;-80
2023/06/20 01:54:05;;;;;;;4.80;4.40;;;20.40;99.90;;;;;;5059741;28;20268;-80
2023/06/20 01:56:32;;;;;;;5.25;4.75;;;20.40;1.00;;;;;;5041646;28;20202;-79
2023/06/20 01:59:00;;;;;;;5.30;4.90;;;20.30;1.00;;;;;;5041859;28;20228;-80
2023/06/20 02:01:28;;;;;;;5.78;5.28;;;20.20;1.00;;;;;;5040954;28;20233;-79
2023/06/20 02:03:55;;;;;;;5.60;5.05;;;20.10;57.80;;;;;;5059461;28;20170;-81
2023/06/20 02:06:22;;;;;;;5.53;5.00;;;20.10;1.10;;;;;;5059304;28;20182;-80
2023/06/20 02:08:48;;;;;;;5.95;5.30;;;20.10;99.90;;;;;;5041852;28;20178;-80
2023/06/20 02:11:14;;;;;;;5.82;5.32;;;20.20;1.00;;;;;;5059181;28;20190;-80
2023/06/20 02:13:40;;;;;;;6.18;5.38;;;20.20;99.90;;;;;;5059504;28;20174;-80
2023/06/20 02:16:08;;;;;;;5.95;5.07;;;20.30;99.90;;;;;;5059459;28;20264;-80
2023/06/20 02:18:35;;;;;;;5.30;4.80;;;20.30;1.00;;;;;;5041851;28;20170;-81
2023/06/20 02:21:09;;;;;;;5.53;5.00;;;20.40;99.90;;;;;;5041378;28;20265;-80
2023/06/20 02:23:38;;;;;;;5.53;5.03;;;20.50;38.40;;;;;;5042280;28;20212;-80
2023/06/20 02:26:11;;;;;;;5.60;4.80;;;20.40;1.00;;;;;;5041516;28;20241;-80
2023/06/20 02:28:40;;;;;;;5.13;4.70;;;20.50;1.00;;;;;;5041684;28;20178;-80
2023/06/20 02:31:09;;;;;;;5.45;5.03;;;20.50;99.90;;;;;;5040917;28;20292;-80
2023/06/20 02:33:36;;;;;;;5.78;5.28;;;20.50;99.90;;;;;;5041694;28;20173;-79
2023/06/20 02:36:03;;;;;;;6.68;5.90;;;20.40;1.00;;;;;;5058982;28;20166;-80
2023/06/20 02:38:29;;;;;;;7.15;6.50;;;20.30;1.00;;;;;;5040587;28;20170;-80
2023/06/20 02:40:54;;;;;;;7.78;6.97;;;20.20;99.90;;;;;;5041038;28;20257;-80
2023/06/20 02:43:20;;;;;;;9.20;7.32;;;20.20;1.00;;;;;;5059408;28;20243;-80
2023/06/20 02:45:49;;;;;;;9.25;7.60;;;20.10;99.90;;;;;;5059229;28;20560;-80
2023/06/20 02:48:31;;;;;;;10.52;7.88;;;20.10;99.90;;;;;;5041832;28;20170;-80
2023/06/20 02:51:14;;;;;;;12.70;8.38;;;19.90;99.90;;;;;;5040863;28;20190;-80
2023/06/20 02:53:50;;;;;;;13.23;7.80;;;19.80;99.90;;;;;;5058377;28;20628;-80
2023/06/20 02:56:17;;;;;;;10.63;7.80;;;19.80;99.90;;;;;;5040246;28;20636;-80
2023/06/20 02:58:46;;;;;;;10.98;8.43;;;19.70;99.90;;;;;;5057579;28;20224;-80
2023/06/20 03:01:18;;;;;;;8.67;7.77;;;19.50;99.90;;;;;;5039034;28;20213;-80
2023/06/20 03:03:47;;;;;;;11.27;7.83;;;19.40;99.90;;;;;;5039779;28;20157;-80
2023/06/20 03:06:14;;;;;;;8.17;7.43;;;19.30;99.90;;;;;;5057996;28;20231;-80
2023/06/20 03:08:43;;;;;;;8.80;7.88;;;19.30;99.90;;;;;;5039617;28;20208;-80
2023/06/20 03:11:09;;;;;;;8.50;7.57;;;19.30;99.90;;;;;;5038746;28;20213;-80
2023/06/20 03:13:35;;;;;;;9.07;7.90;;;19.30;99.90;;;;;;5039645;28;20170;-81
2023/06/20 03:16:00;;;;;;;9.87;7.43;;;19.30;99.90;;;;;;5040190;28;20265;-80
2023/06/20 03:18:29;;;;;;;9.63;7.90;;;19.40;99.90;;;;;;5057068;28;20250;-81
2023/06/20 03:20:55;;;;;;;8.87;7.73;;;19.40;99.90;;;;;;5039122;28;20212;-81
2023/06/20 03:23:20;;;;;;;8.68;7.80;;;19.40;99.90;;;;;;5039047;28;20174;-80
2023/06/20 03:25:46;;;;;;;11.30;8.87;;;19.50;99.90;;;;;;5039599;28;20200;-81
2023/06/20 03:28:12;;;;;;;14.23;9.75;;;19.50;99.90;;;;;;5038591;28;20209;-79
2023/06/20 03:30:38;;;;;;;8.63;7.70;;;19.50;99.90;;;;;;5057855;28;20205;-80
2023/06/20 03:33:04;;;;;;;8.55;7.00;;;19.60;99.90;;;;;;5057651;28;20237;-81
2023/06/20 03:35:29;;;;;;;8.30;7.03;;;19.50;99.90;;;;;;5039216;28;20282;-81
2023/06/20 03:37:55;;;;;;;8.82;7.65;;;19.60;99.90;;;;;;5039924;28;20204;-81
2023/06/20 03:40:21;;;;;;;8.85;7.18;;;19.70;99.90;;;;;;5057658;28;20248;-80
2023/06/20 03:42:46;;;;;;;8.52;7.30;;;19.70;99.90;;;;;;5055552;28;20179;-81
2023/06/20 03:45:12;;;;;;;10.27;7.40;;;19.70;99.90;;;;;;5039860;28;20220;-80
2023/06/20 03:47:37;;;;;;;8.20;6.70;;;19.80;99.90;;;;;;5058333;28;20264;-81
2023/06/20 03:50:03;;;;;;;10.25;7.18;;;19.80;99.90;;;;;;5057404;28;20197;-80
2023/06/20 03:52:29;;;;;;;7.22;6.53;;;19.70;99.90;;;;;;5038861;28;20178;-81
2023/06/20 03:54:54;;;;;;;12.48;7.38;;;19.80;99.90;;;;;;5057497;28;20209;-81
2023/06/20 03:57:20;;;;;;;8.55;6.65;;;19.80;99.90;;;;;;5039784;28;20201;-81
2023/06/20 03:59:45;;;;;;;7.32;6.43;;;19.60;99.90;;;;;;5055873;28;20624;-81
2023/06/20 04:02:11;;;;;;;7.82;7.05;;;19.60;99.90;;;;;;5039867;28;20280;-81
2023/06/20 04:04:37;;;;;;;9.07;7.25;;;19.40;99.90;;;;;;5057302;28;20247;-80
2023/06/20 04:07:03;;;;;;;7.90;7.10;;;19.30;99.90;;;;;;5056677;28;20177;-80
2023/06/20 04:09:28;;;;;;;8.77;7.27;;;19.40;99.90;;;;;;5055359;28;20194;-81
2023/06/20 04:11:54;;;;;;;8.07;7.18;;;19.40;99.90;;;;;;5038826;28;20197;-80
2023/06/20 04:14:20;;;;;;;7.90;7.07;;;19.40;99.90;;;;;;5056876;28;20180;-81
2023/06/20 04:16:49;;;;;;;7.55;6.75;;;19.50;99.90;;;;;;5038647;28;20284;-81
2023/06/20 04:19:15;;;;;;;9.77;6.47;;;19.50;99.90;;;;;;5056647;28;20588;-80
2023/06/20 04:21:40;;;;;;;6.43;5.82;;;19.50;99.90;;;;;;5056153;28;20194;-80
2023/06/20 04:24:06;;;;;;;7.45;5.90;;;19.50;99.90;;;;;;5039219;28;20219;-81
2023/06/20 04:26:32;;;;;;;5.95;5.22;;;19.40;99.90;;;;;;5056979;28;20183;-81
2023/06/20 04:28:58;;;;;;;7.10;5.22;;;19.30;99.90;;;;;;5039092;28;20174;-81
2023/06/20 04:31:24;;;;;;;6.78;5.68;;;19.30;99.90;;;;;;5056320;28;20194;-81
2023/06/20 04:33:50;;;;;;;5.32;4.82;;;19.40;99.90;;;;;;5039170;28;20224;-81
2023/06/20 04:36:15;;;;;;;5.88;5.28;;;19.40;99.90;;;;;;5056660;28;20586;-81
2023/06/20 04:38:42;;;;;;;5.88;5.28;;;19.50;99.90;;;;;;5056702;28;20170;-81
2023/06/20 04:41:08;;;;;;;6.03;5.43;;;19.50;99.90;;;;;;5056530;28;20232;-81
2023/06/20 04:43:35;;;;;;;6.20;5.40;;;19.50;99.90;;;;;;5039039;28;20180;-81
2023/06/20 04:46:01;;;;;;;7.57;5.15;;;19.60;99.90;;;;;;5038660;28;20174;-81
2023/06/20 04:48:28;;;;;;;6.05;5.00;;;19.60;99.90;;;;;;5039271;28;20197;-80
2023/06/20 04:50:55;;;;;;;5.82;4.70;;;19.60;99.90;;;;;;5056095;28;20194;-81
2023/06/20 04:53:22;;;;;;;5.80;5.20;;;19.60;99.90;;;;;;5039456;28;20181;-81
2023/06/20 04:55:48;;;;;;;6.75;5.40;;;19.70;99.90;;;;;;5060004;28;20186;-81
2023/06/20 04:58:14;;;;;;;6.13;5.50;;;19.80;99.90;;;;;;5042425;28;20197;-81
2023/06/20 05:00:40;;;;;;;7.05;5.32;;;19.70;99.90;;;;;;5042170;28;20194;-81
2023/06/20 05:03:06;;;;;;;7.43;5.78;;;19.70;99.90;;;;;;5060031;28;20230;-81
2023/06/20 05:05:32;;;;;;;8.48;5.30;;;19.80;99.90;;;;;;5059933;28;20165;-81
2023/06/20 05:07:57;;;;;;;6.20;5.60;;;19.70;99.90;;;;;;5041001;28;20177;-80
2023/06/20 05:10:23;;;;;;;6.10;5.30;;;19.80;99.90;;;;;;5055750;28;20190;-80
2023/06/20 05:12:49;;;;;;;6.00;5.40;;;19.80;99.90;;;;;;5055854;28;20181;-81
2023/06/20 05:15:14;;;;;;;5.47;4.97;;;19.90;99.90;;;;;;5038051;28;20543;-81
2023/06/20 05:17:40;;;;;;;5.93;5.20;;;19.80;99.90;;;;;;5038320;28;20193;-80
2023/06/20 05:20:06;;;;;;;5.90;5.20;;;19.80;99.90;;;;;;5055475;28;20264;-79
2023/06/20 05:22:35;;;;;;;6.30;5.70;;;19.90;99.90;;;;;;5055439;28;20528;-80
2023/06/20 05:25:01;;;;;;;6.20;5.57;;;19.90;99.90;;;;;;5037542;28;20170;-79
2023/06/20 05:27:27;;;;;;;5.95;5.35;;;19.80;99.90;;;;;;5037671;28;20265;-79
2023/06/20 05:29:52;;;;;;;5.75;5.10;;;19.80;99.90;;;;;;5055232;28;20308;-79
2023/06/20 05:32:18;;;;;;;5.65;4.05;;;19.90;99.90;;;;;;5055648;28;20165;-81
2023/06/20 05:34:44;;;;;;;4.50;4.10;;;20.70;99.90;;;;;;5038127;28;20177;-83
2023/06/20 05:37:09;;;;;;;4.85;4.32;;;21.10;45.80;;;;;;5056006;28;20204;-82
2023/06/20 05:39:35;;;;;;;4.93;4.43;;;21.40;92.30;;;;;;5056243;28;20178;-80
2023/06/20 05:42:01;;;;;;;7.90;4.28;;;21.70;1.00;;;;;;5038380;28;20284;-82
2023/06/20 05:44:26;;;;;;;4.38;3.80;;;22.00;1.00;;;;;;5039037;28;20175;-83
2023/06/20 05:46:53;;;;;;;4.75;4.07;;;22.30;1.00;;;;;;5039248;28;20614;-82
2023/06/20 05:49:21;;;;;;;4.00;3.60;;;22.50;1.00;;;;;;5056365;28;20258;-81
2023/06/20 05:51:47;;;;;;;4.75;4.35;;;22.70;99.90;;;;;;5056152;28;20676;-83
2023/06/20 05:54:13;;;;;;;5.30;4.30;;;22.80;1.00;;;;;;5038636;28;20205;-82
2023/06/20 05:56:39;;;;;;;4.53;4.13;;;22.70;99.90;;;;;;5038742;28;20240;-82
2023/06/20 05:59:05;;;;;;;4.40;4.00;;;22.60;99.90;;;;;;5038502;28;20219;-81
2023/06/20 06:01:31;;;;;;;4.40;4.00;;;22.60;99.90;;;;;;5056883;28;20205;-82
2023/06/20 06:03:56;;;;;;;4.93;4.03;;;22.60;1.00;;;;;;5055753;28;20181;-81
2023/06/20 06:06:24;;;;;;;4.43;4.03;;;22.60;1.00;;;;;;5036545;28;20170;-81
2023/06/20 06:08:50;;;;;;;4.97;4.40;;;22.80;1.00;;;;;;5037441;28;20258;-81
2023/06/20 06:11:16;;;;;;;6.28;4.38;;;23.00;1.00;;;;;;5054924;28;20209;-80
2023/06/20 06:13:41;;;;;;;5.30;4.80;;;23.30;99.90;;;;;;5037224;28;20714;-80
2023/06/20 06:16:07;;;;;;;5.07;4.60;;;23.10;1.00;;;;;;5054459;28;20196;-81
2023/06/20 06:18:33;;;;;;;5.68;4.63;;;23.10;1.00;;;;;;5054581;28;20204;-82
2023/06/20 06:20:59;;;;;;;5.50;5.00;;;23.20;1.00;;;;;;5054425;28;20190;-81
2023/06/20 06:23:24;;;;;;;5.88;4.55;;;22.90;1.00;;;;;;5037023;28;20174;-81
2023/06/20 06:25:50;;;;;;;5.70;5.05;;;22.80;1.00;;;;;;5054919;28;20166;-80
2023/06/20 06:28:16;;;;;;;5.55;5.05;;;22.60;1.00;;;;;;5036968;28;20182;-79
2023/06/20 06:30:42;;;;;;;5.85;5.35;;;22.40;32.60;;;;;;5036383;28;20252;-78
2023/06/20 06:33:08;;;;;;;6.00;5.30;;;22.20;99.90;;;;;;5036925;28;20173;-80
2023/06/20 06:35:34;;;;;;;7.15;5.82;;;22.00;99.90;;;;;;5037550;28;20277;-80
2023/06/20 06:38:00;;;;;;;6.60;5.22;;;21.80;99.90;;;;;;5036487;28;20289;-81
2023/06/20 06:40:26;;;;;;;5.40;5.00;;;21.90;99.90;;;;;;5035557;28;20611;-81
2023/06/20 06:42:52;;;;;;;5.82;5.20;;;21.90;99.90;;;;;;5054050;28;20174;-79
2023/06/20 06:45:18;;;;;;;6.00;5.40;;;21.90;99.90;;;;;;5036905;28;20635;-81
2023/06/20 06:47:43;;;;;;;7.13;6.03;;;21.90;99.90;;;;;;5053535;28;20170;-82
2023/06/20 06:50:09;;;;;;;6.07;5.47;;;21.90;99.90;;;;;;5035623;28;20564;-82
2023/06/20 06:52:34;;;;;;;6.38;5.72;;;21.80;99.90;;;;;;5036014;28;20173;-82
2023/06/20 06:55:01;;;;;;;5.72;5.22;;;21.70;99.90;;;;;;5036023;28;20169;-82
2023/06/20 06:57:26;;;;;;;6.30;5.70;;;21.80;99.90;;;;;;5053407;28;20193;-82
2023/06/20 06:59:52;;;;;;;6.70;5.30;;;22.00;99.90;;;;;;5035258;28;20316;-82
2023/06/20 07:02:18;;;;;;;8.25;6.00;;;22.10;99.90;;;;;;5035634;28;20182;-82
2023/06/20 07:04:44;;;;;;;6.90;6.20;;;22.10;99.90;;;;;;5035772;28;20180;-82
2023/06/20 07:07:10;;;;;;;7.85;6.70;;;22.10;99.90;;;;;;5053152;28;20188;-82
2023/06/20 07:09:36;;;;;;;7.60;6.78;;;22.10;99.90;;;;;;5053324;28;20173;-79
2023/06/20 07:12:04;;;;;;;7.72;7.03;;;22.00;99.90;;;;;;5053319;28;20204;-81
2023/06/20 07:14:29;;;;;;;8.48;7.68;;;22.10;99.90;;;;;;5033472;28;20181;-81
2023/06/20 07:16:55;;;;;;;7.45;6.75;;;22.10;99.90;;;;;;5043305;28;20216;-81
2023/06/20 07:19:20;;;;;;;7.50;6.72;;;22.10;99.90;;;;;;5053029;28;20170;-81
2023/06/20 07:21:46;;;;;;;7.30;6.60;;;22.10;99.90;;;;;;5053179;28;20201;-81
2023/06/20 07:24:11;;;;;;;6.65;6.00;;;22.30;99.90;;;;;;5035274;28;20268;-81
2023/06/20 07:26:37;;;;;;;6.85;6.13;;;22.30;99.90;;;;;;5035324;28;20212;-82
2023/06/20 07:29:02;;;;;;;6.78;6.25;;;22.30;99.90;;;;;;5052940;28;20664;-84
2023/06/20 07:31:28;;;;;;;6.93;6.32;;;22.30;99.90;;;;;;5039792;28;20679;-83
2023/06/20 07:33:54;;;;;;;6.30;5.70;;;22.30;99.90;;;;;;5047647;28;20215;-83
2023/06/20 07:36:19;;;;;;;6.57;5.97;;;22.50;99.90;;;;;;5050739;28;20269;-86
2023/06/20 07:38:45;;;;;;;7.13;6.50;;;22.50;99.90;;;;;;5032616;28;20170;-85
2023/06/20 07:41:10;;;;;;;7.53;6.72;;;22.60;99.90;;;;;;5032050;28;20186;-84
2023/06/20 07:43:36;;;;;;;6.38;5.78;;;22.80;99.90;;;;;;5032442;28;20166;-84
2023/06/20 07:46:01;;;;;;;6.97;6.38;;;22.90;99.90;;;;;;5031043;28;20202;-83
2023/06/20 07:48:27;;;;;;;8.02;6.22;;;22.90;99.90;;;;;;5033584;28;20209;-83
2023/06/20 07:50:53;;;;;;;6.10;5.60;;;22.80;99.90;;;;;;5040804;28;20196;-84
2023/06/20 07:53:19;;;;;;;7.25;6.65;;;22.90;99.90;;;;;;5043263;28;20572;-84
2023/06/20 07:55:44;;;;;;;6.88;6.28;;;23.10;99.90;;;;;;5056709;28;20260;-84
2023/06/20 07:58:10;;;;;;;7.50;6.63;;;23.30;99.90;;;;;;5051675;28;20241;-81
2023/06/20 08:00:36;;;;;;;7.55;6.80;;;23.40;33.30;;;;;;5038041;28;20606;-81
2023/06/20 08:03:01;;;;;;;7.70;7.00;;;23.40;12.60;;;;;;5039399;28;20264;-81
2023/06/20 08:05:27;;;;;;;8.57;7.78;;;23.50;99.90;;;;;;5052699;28;20205;-81
2023/06/20 08:07:52;;;;;;;8.27;7.47;;;23.70;34.90;;;;;;5053213;28;20181;-81
2023/06/20 08:10:18;;;;;;;8.68;7.90;;;23.70;1.00;;;;;;5052326;28;20197;-82
2023/06/20 08:12:44;;;;;;;7.97;7.28;;;23.60;1.00;;;;;;5052359;28;20174;-82
2023/06/20 08:15:10;;;;;;;9.18;8.15;;;23.60;1.00;;;;;;5052463;28;20181;-82
2023/06/20 08:17:35;;;;;;;9.85;8.95;;;23.60;1.00;;;;;;5034670;28;20201;-82
2023/06/20 08:20:05;;;;;;;8.50;7.70;;;23.70;1.00;;;;;;5050954;28;20247;-82
2023/06/20 08:22:31;;;;;;;9.15;7.85;;;23.90;1.00;;;;;;5032828;28;20201;-81
2023/06/20 08:24:56;;;;;;;9.38;8.20;;;24.10;1.00;;;;;;5041190;28;20200;-82
2023/06/20 08:27:22;;;;;;;9.02;8.23;;;24.20;1.00;;;;;;5072327;28;20177;-81
2023/06/20 08:29:47;;;;;;;9.05;8.25;;;24.10;1.00;;;;;;5075226;28;20663;-81
2023/06/20 08:32:13;;;;;;;9.15;8.25;;;24.10;99.90;;;;;;5076095;28;20176;-80
2023/06/20 08:34:38;;;;;;;8.88;8.07;;;24.00;1.00;;;;;;5044927;28;20190;-81
2023/06/20 08:37:04;;;;;;;8.88;7.97;;;23.80;1.00;;;;;;5032992;28;20202;-81
2023/06/20 08:39:30;;;;;;;9.68;8.82;;;23.60;1.00;;;;;;5018922;28;20589;-79
2023/06/20 08:41:55;;;;;;;10.25;9.00;;;23.70;94.40;;;;;;5034937;28;20676;-81
2023/06/20 08:44:21;;;;;;;9.48;8.68;;;23.70;1.00;;;;;;5019070;28;20262;-81
2023/06/20 08:46:47;;;;;;;9.75;8.85;;;23.60;1.00;;;;;;5036594;28;20167;-80
2023/06/20 08:49:14;;;;;;;9.57;8.68;;;23.50;29.20;;;;;;5018981;28;20198;-79
2023/06/20 08:51:45;;;;;;;10.65;9.57;;;23.50;1.00;;;;;;5036182;28;20218;-80
2023/06/20 08:54:13;;;;;;;10.63;9.50;;;23.50;1.00;;;;;;5018581;28;20174;-80
2023/06/20 08:56:39;;;;;;;9.98;8.93;;;23.50;45.70;;;;;;5036342;28;20197;-80
2023/06/20 08:59:05;;;;;;;9.95;8.90;;;23.60;1.00;;;;;;5036012;28;20166;-81
2023/06/20 09:01:30;;;;;;;9.90;9.07;;;23.50;1.00;;;;;;5017914;28;20206;-81
2023/06/20 09:04:01;;;;;;;10.80;9.70;;;23.60;1.00;;;;;;5018509;28;20213;-81
2023/06/20 09:06:38;;;;;;;9.88;8.98;;;23.60;1.00;;;;;;5036626;28;20189;-80
2023/06/20 09:09:14;;;;;;;10.82;9.88;;;23.70;1.00;;;;;;5036686;28;20170;-81
2023/06/20 09:11:39;;;;;;;10.50;9.50;;;24.00;1.00;;;;;;5036503;28;20565;-81
2023/06/20 09:14:05;;;;;;;9.93;8.98;;;24.20;99.90;;;;;;5018765;28;20170;-81
2023/06/20 09:16:31;;;;;;;10.60;9.50;;;24.20;1.00;;;;;;5018672;28;20175;-81
2023/06/20 09:19:03;;;;;;;10.05;9.15;;;24.30;1.00;;;;;;5034782;28;20261;-79
2023/06/20 09:21:28;;;;;;;10.57;9.68;;;24.40;99.90;;;;;;5017190;28;20783;-79
2023/06/20 09:24:05;;;;;;;11.23;10.20;;;24.50;99.90;;;;;;5017798;28;20183;-83
2023/06/20 09:26:31;;;;;;;10.85;9.80;;;24.70;99.90;;;;;;5035225;28;20166;-84
2023/06/20 09:29:09;;;;;;;11.32;10.32;;;24.70;99.90;;;;;;5036613;28;20170;-80
2023/06/20 09:31:43;;;;;;;10.98;9.95;;;24.70;1.00;;;;;;5035749;28;20795;-80
2023/06/20 09:34:10;;;;;;;11.63;10.48;;;24.60;99.90;;;;;;5035892;28;20656;-80
2023/06/20 09:36:36;;;;;;;11.43;10.32;;;24.60;8.20;;;;;;5034231;28;20170;-80
2023/06/20 09:39:02;;;;;;;10.88;9.85;;;24.80;99.90;;;;;;5034429;28;20181;-81
2023/06/20 09:41:28;;;;;;;11.00;10.10;;;24.90;1.00;;;;;;5016394;28;20201;-82
2023/06/20 09:43:54;;;;;;;11.45;10.30;;;25.20;1.00;;;;;;5033569;28;20174;-82
2023/06/20 09:46:19;;;;;;;11.25;10.25;;;25.10;46.00;;;;;;5035072;28;20174;-82
2023/06/20 09:48:45;;;;;;;11.90;10.52;;;25.50;99.90;;;;;;5033418;28;20552;-83
2023/06/20 09:51:10;;;;;;;11.43;10.43;;;25.60;1.00;;;;;;5016771;28;20258;-82
2023/06/20 09:54:03;;;;;;;10.85;9.75;;;25.60;99.90;;;;;;5033767;28;20173;-81
2023/06/20 09:56:29;;;;;;;10.40;9.35;;;25.60;99.90;;;;;;5034821;28;20167;-80
2023/06/20 09:58:59;;;;;;;11.07;10.07;;;25.50;1.00;;;;;;5017361;28;20190;-80
2023/06/20 10:01:26;;;;;;;11.10;10.20;;;25.50;76.80;;;;;;5033934;28;20245;-81
2023/06/20 10:03:54;;;;;;;12.15;11.05;;;25.70;99.90;;;;;;5033461;28;20216;-81
2023/06/20 10:06:20;;;;;;;11.05;10.05;;;26.00;1.00;;;;;;5038336;28;20166;-81
2023/06/20 10:08:47;;;;;;;10.63;9.68;;;26.10;1.00;;;;;;5038549;28;20169;-81
2023/06/20 10:11:13;;;;;;;10.05;9.15;;;26.20;99.90;;;;;;5016437;28;20284;-81
2023/06/20 10:13:40;;;;;;;10.10;9.20;;;26.20;99.90;;;;;;5034533;28;20174;-82
2023/06/20 10:16:06;;;;;;;10.52;9.63;;;26.30;99.90;;;;;;5017086;28;20182;-81
2023/06/20 10:18:32;;;;;;;10.88;9.88;;;26.30;1.00;;;;;;5034779;28;20205;-82
2023/06/20 10:21:00;;;;;;;9.63;8.82;;;26.40;99.90;;;;;;5034411;28;20190;-82
2023/06/20 10:23:35;;;;;;;9.65;8.90;;;26.80;1.00;;;;;;5035003;28;20175;-82
2023/06/20 10:26:03;;;;;;;10.05;9.25;;;27.00;99.90;;;;;;5035166;28;20241;-81
2023/06/20 10:28:29;;;;;;;9.95;9.15;;;27.20;99.90;;;;;;5017628;28;20232;-82
2023/06/20 10:31:03;;;;;;;10.40;9.40;;;27.00;99.90;;;;;;5034815;28;20202;-80
2023/06/20 10:33:41;;;;;;;10.73;9.63;;;27.40;1.00;;;;;;5034510;28;20180;-81
2023/06/20 10:36:08;;;;;;;10.02;9.13;;;27.40;1.00;;;;;;5016630;28;20270;-81
2023/06/20 10:38:39;;;;;;;10.00;9.20;;;27.40;99.90;;;;;;5016683;28;20198;-80
2023/06/20 10:41:21;;;;;;;9.60;8.80;;;27.50;99.90;;;;;;5034197;28;20222;-81
2023/06/20 10:43:47;;;;;;;9.70;8.90;;;27.70;99.90;;;;;;5034538;28;20233;-81
2023/06/20 10:46:13;;;;;;;9.35;8.45;;;27.80;1.00;;;;;;5034335;28;20183;-80
2023/06/20 10:48:39;;;;;;;9.52;8.52;;;28.00;99.90;;;;;;5016675;28;20704;-81
2023/06/20 10:51:05;;;;;;;9.90;9.10;;;27.90;1.00;;;;;;5016051;28;20194;-80
2023/06/20 10:53:31;;;;;;;9.50;8.70;;;27.90;73.80;;;;;;5034280;28;20174;-80
2023/06/20 10:55:57;;;;;;;9.13;8.43;;;27.90;99.90;;;;;;5016297;28;20183;-79
2023/06/20 10:58:23;;;;;;;9.50;8.63;;;28.20;99.90;;;;;;5034119;28;20202;-80
2023/06/20 11:00:52;;;;;;;8.93;8.15;;;28.10;1.00;;;;;;5016273;28;20301;-80
2023/06/20 11:03:20;;;;;;;9.73;8.82;;;28.10;99.90;;;;;;5016206;28;20174;-81
2023/06/20 11:05:50;;;;;;;9.80;8.90;;;28.30;99.90;;;;;;5015973;28;20664;-80
2023/06/20 11:08:25;;;;;;;9.48;8.68;;;28.30;26.20;;;;;;5033750;28;20178;-80
2023/06/20 11:10:51;;;;;;;9.25;8.52;;;28.00;1.00;;;;;;5033528;28;20197;-80
2023/06/20 11:13:17;;;;;;;9.73;8.85;;;27.60;1.00;;;;;;5033376;28;20174;-80
2023/06/20 11:15:42;;;;;;;8.70;7.90;;;27.50;1.00;;;;;;5033660;28;20166;-80
2023/06/20 11:18:08;;;;;;;9.18;8.30;;;28.00;1.00;;;;;;5033337;28;20323;-80
2023/06/20 11:20:39;;;;;;;9.75;8.93;;;28.30;99.90;;;;;;5015690;28;20202;-80
2023/06/20 11:23:06;;;;;;;10.10;9.05;;;28.40;99.90;;;;;;5033643;28;20232;-80
2023/06/20 11:25:35;;;;;;;8.90;8.13;;;28.10;99.90;;;;;;5015621;28;20166;-81
2023/06/20 11:28:12;;;;;;;9.45;8.55;;;28.40;1.00;;;;;;5033342;28;20594;-80
2023/06/20 11:30:40;;;;;;;8.98;8.23;;;28.70;99.90;;;;;;5032979;28;20197;-81
2023/06/20 11:33:12;;;;;;;8.70;8.00;;;28.40;1.00;;;;;;5033306;28;20238;-80
2023/06/20 11:35:51;;;;;;;9.13;8.38;;;28.50;1.00;;;;;;5033709;28;20257;-81
2023/06/20 11:38:23;;;;;;;9.20;8.30;;;28.50;1.00;;;;;;5015510;28;20289;-80
2023/06/20 11:41:03;;;;;;;9.50;8.70;;;28.90;1.00;;;;;;5032799;28;20273;-81
2023/06/20 11:43:36;;;;;;;8.52;7.82;;;29.10;99.90;;;;;;5033345;28;20189;-81
2023/06/20 11:46:02;;;;;;;8.50;7.70;;;28.90;99.90;;;;;;5033228;28;20183;-80
2023/06/20 11:48:29;;;;;;;8.68;7.97;;;29.10;1.00;;;;;;5015400;28;20178;-80
2023/06/20 11:51:05;;;;;;;8.80;8.02;;;28.80;1.00;;;;;;5032529;28;20652;-80
2023/06/20 11:53:35;;;;;;;8.18;7.47;;;29.00;1.00;;;;;;5033001;28;20174;-80
2023/06/20 11:56:09;;;;;;;8.93;8.10;;;28.60;1.00;;;;;;5033439;28;20174;-80
2023/06/20 11:58:41;;;;;;;8.75;8.05;;;28.20;1.00;;;;;;5033194;28;20210;-80
2023/06/20 12:01:17;;;;;;;9.35;8.55;;;28.00;1.00;;;;;;5016264;28;20210;-80
2023/06/20 12:03:44;;;;;;;8.30;7.50;;;28.40;99.90;;;;;;5014908;28;20177;-80
2023/06/20 12:06:29;;;;;;;8.95;8.05;;;28.70;1.00;;;;;;5033328;28;20223;-80
2023/06/20 12:08:55;;;;;;;9.05;8.25;;;28.70;99.90;;;;;;5015344;28;20180;-79
2023/06/20 12:11:21;;;;;;;8.85;7.95;;;28.70;1.00;;;;;;5032855;28;20260;-78
2023/06/20 12:13:49;;;;;;;8.57;7.88;;;28.60;99.90;;;;;;5015528;28;20171;-81
2023/06/20 12:16:15;;;;;;;8.38;7.68;;;28.70;1.00;;;;;;5034918;28;20220;-80
2023/06/20 12:18:42;;;;;;;8.95;8.05;;;29.00;99.90;;;;;;5015605;28;20202;-81
2023/06/20 12:21:07;;;;;;;8.35;7.65;;;29.20;99.90;;;;;;5015304;28;20186;-81
2023/06/20 12:23:34;;;;;;;8.05;7.38;;;29.30;1.00;;;;;;5015855;28;20173;-80
2023/06/20 12:26:00;;;;;;;8.30;7.50;;;29.60;1.00;;;;;;5033152;28;20174;-81
2023/06/20 12:28:25;;;;;;;7.90;7.20;;;29.80;99.90;;;;;;5015703;28;20235;-81
2023/06/20 12:30:51;;;;;;;7.97;7.28;;;29.40;99.90;;;;;;5015270;28;20194;-80
2023/06/20 12:33:18;;;;;;;8.60;7.78;;;29.30;99.90;;;;;;5015421;28;20256;-81
2023/06/20 12:35:43;;;;;;;8.23;7.53;;;29.20;43.20;;;;;;5033270;28;20166;-80
2023/06/20 12:38:10;;;;;;;8.10;7.40;;;28.90;1.00;;;;;;5015340;28;20621;-80
2023/06/20 12:40:36;;;;;;;10.18;7.82;;;28.70;1.00;;;;;;5032822;28;20190;-81
2023/06/20 12:43:02;;;;;;;8.15;7.35;;;28.70;1.00;;;;;;5015217;28;20671;-81
2023/06/20 12:45:28;;;;;;;7.80;7.05;;;28.90;99.90;;;;;;5049086;28;20174;-81
2023/06/20 12:47:54;;;;;;;8.23;7.43;;;29.20;99.90;;;;;;5043317;28;20177;-80
2023/06/20 12:50:19;;;;;;;7.80;7.10;;;29.30;7.80;;;;;;5034649;28;20201;-81